createdAt,value
2022-11-18T00:00:08.026Z,60.91
2022-11-18T00:01:12.348Z,61.31
2022-11-18T00:02:16.868Z,61.79
2022-11-18T00:03:21.214Z,61.15
2022-11-18T00:04:25.512Z,61.08
2022-11-18T00:05:29.818Z,60.98
2022-11-18T00:06:34.117Z,61.01
2022-11-18T00:07:38.816Z,61.18
2022-11-18T00:08:43.187Z,61.01
2022-11-18T00:09:47.502Z,61.75
2022-11-18T00:10:51.800Z,61.21
2022-11-18T00:11:58.412Z,61.09
2022-11-18T00:13:02.811Z,61.13
2022-11-18T00:14:07.089Z,61.34
2022-11-18T00:15:11.376Z,61.92
2022-11-18T00:16:15.689Z,61.45
2022-11-18T00:17:19.970Z,61.56
2022-11-18T00:18:24.910Z,61.92
2022-11-18T00:19:29.245Z,61.9
2022-11-18T00:20:33.529Z,61.84
2022-11-18T00:21:37.818Z,62
2022-11-18T00:22:42.090Z,62.25
2022-11-18T00:23:46.365Z,61.6
2022-11-18T00:24:50.656Z,61.74
2022-11-18T00:25:54.965Z,61.93
2022-11-18T00:26:59.271Z,62.08
2022-11-18T00:28:03.560Z,62.27
2022-11-18T00:29:07.829Z,62.27
2022-11-18T00:30:12.223Z,61.77
2022-11-18T00:31:16.557Z,62.1
2022-11-18T00:32:20.824Z,61.93
2022-11-18T00:33:25.104Z,61.71
2022-11-18T00:34:29.372Z,62.07
2022-11-18T00:35:33.639Z,61.66
2022-11-18T00:36:37.916Z,61.71
2022-11-18T00:37:42.199Z,62.1
2022-11-18T00:38:47.481Z,61.67
2022-11-18T00:39:51.772Z,62.01
2022-11-18T00:40:56.084Z,62.13
2022-11-18T00:42:00.512Z,62.48
2022-11-18T00:43:04.815Z,62.31
2022-11-18T00:44:11.693Z,61.83
2022-11-18T00:45:15.957Z,62.22
2022-11-18T00:46:20.238Z,62.06
2022-11-18T00:47:24.497Z,62.46
2022-11-18T00:48:28.791Z,62.4
2022-11-18T00:49:33.080Z,62.08
2022-11-18T00:50:37.364Z,62.04
2022-11-18T00:51:41.616Z,62.27
2022-11-18T00:52:45.873Z,62.19
2022-11-18T00:53:50.170Z,62.14
2022-11-18T00:54:54.452Z,61.91
2022-11-18T00:55:58.790Z,62.39
2022-11-18T00:57:03.066Z,62.2
2022-11-18T00:58:07.360Z,62.28
2022-11-18T00:59:11.617Z,62.19
2022-11-18T01:00:15.911Z,62.24
2022-11-18T01:01:20.556Z,62.46
2022-11-18T01:02:24.904Z,62.58
2022-11-18T01:03:29.194Z,62.4
2022-11-18T01:04:33.491Z,62.25
2022-11-18T01:05:37.762Z,62.3
2022-11-18T01:06:42.055Z,62.56
2022-11-18T01:07:46.540Z,62.56
2022-11-18T01:08:50.851Z,62.25
2022-11-18T01:09:55.118Z,62.51
2022-11-18T01:10:59.368Z,62.5
2022-11-18T01:12:03.612Z,62.52
2022-11-18T01:13:07.864Z,62.47
2022-11-18T01:14:12.147Z,62.18
2022-11-18T01:15:16.442Z,62.35
2022-11-18T01:16:20.752Z,62.23
2022-11-18T01:17:25.008Z,62.27
2022-11-18T01:18:29.281Z,62.76
2022-11-18T01:19:33.546Z,62.75
2022-11-18T01:20:37.799Z,62.59
2022-11-18T01:21:42.096Z,62.53
2022-11-18T01:22:46.355Z,62.63
2022-11-18T01:23:50.639Z,62.67
2022-11-18T01:24:54.898Z,62.28
2022-11-18T01:25:59.201Z,62.38
2022-11-18T01:27:03.526Z,62.26
2022-11-18T01:28:07.826Z,62.47
2022-11-18T01:29:12.087Z,62.51
2022-11-18T01:30:16.355Z,62.58
2022-11-18T01:31:20.663Z,62.55
2022-11-18T01:32:27.247Z,63.11
2022-11-18T01:33:31.621Z,62.53
2022-11-18T01:34:35.891Z,62.31
2022-11-18T01:35:40.180Z,62.76
2022-11-18T01:36:44.441Z,62.63
2022-11-18T01:37:48.717Z,62.96
2022-11-18T01:38:52.983Z,62.71
2022-11-18T01:39:57.248Z,62.74
2022-11-18T01:41:03.883Z,62.37
2022-11-18T01:42:08.143Z,62.87
2022-11-18T01:43:12.452Z,62.9
2022-11-18T01:44:16.955Z,62.58
2022-11-18T01:45:21.337Z,62.57
2022-11-18T01:46:25.611Z,62.65
2022-11-18T01:47:29.861Z,62.79
2022-11-18T01:48:34.182Z,62.69
2022-11-18T01:49:38.493Z,62.98
2022-11-18T01:50:42.760Z,62.59
2022-11-18T01:51:47.043Z,62.81
2022-11-18T01:52:53.927Z,63.08
2022-11-18T01:53:58.257Z,62.55
2022-11-18T01:55:02.515Z,62.94
2022-11-18T01:56:06.780Z,63.25
2022-11-18T01:57:11.052Z,63.43
2022-11-18T01:58:15.328Z,62.99
2022-11-18T01:59:20.533Z,62.75
2022-11-18T02:00:24.834Z,62.77
2022-11-18T02:01:29.491Z,62.92
2022-11-18T02:02:33.763Z,62.67
2022-11-18T02:03:38.086Z,62.86
2022-11-18T02:04:42.352Z,62.78
2022-11-18T02:05:46.649Z,63.41
2022-11-18T02:06:50.896Z,63.18
2022-11-18T02:07:55.192Z,63.44
2022-11-18T02:08:59.476Z,63.51
2022-11-18T02:10:03.767Z,63.17
2022-11-18T02:11:08.064Z,62.65
2022-11-18T02:12:12.625Z,62.89
2022-11-18T02:13:16.941Z,62.83
2022-11-18T02:14:21.231Z,62.92
2022-11-18T02:15:25.533Z,62.74
2022-11-18T02:16:29.869Z,63.15
2022-11-18T02:17:34.149Z,63.2
2022-11-18T02:18:38.447Z,62.83
2022-11-18T02:19:42.706Z,62.86
2022-11-18T02:20:46.986Z,63.02
2022-11-18T02:21:51.305Z,62.87
2022-11-18T02:22:55.589Z,63.03
2022-11-18T02:23:59.858Z,62.94
2022-11-18T02:25:04.143Z,63.03
2022-11-18T02:26:08.419Z,62.9
2022-11-18T02:27:15.730Z,63.05
2022-11-18T02:28:20.047Z,63.21
2022-11-18T02:29:24.316Z,63.13
2022-11-18T02:30:28.602Z,62.76
2022-11-18T02:31:32.903Z,62.86
2022-11-18T02:32:37.200Z,62.82
2022-11-18T02:33:41.475Z,63.35
2022-11-18T02:34:45.784Z,62.93
2022-11-18T02:35:50.071Z,63.13
2022-11-18T02:36:54.331Z,63.1
2022-11-18T02:37:58.671Z,62.95
2022-11-18T02:39:02.939Z,63.1
2022-11-18T02:40:07.196Z,63.31
2022-11-18T02:41:11.464Z,63.56
2022-11-18T02:42:15.763Z,63.81
2022-11-18T02:43:20.029Z,63.08
2022-11-18T02:44:24.294Z,63.55
2022-11-18T02:45:28.603Z,63.45
2022-11-18T02:46:32.898Z,63.99
2022-11-18T02:47:37.195Z,63.7
2022-11-18T02:48:41.535Z,63.62
2022-11-18T02:49:45.806Z,63.59
2022-11-18T02:50:50.088Z,63.58
2022-11-18T02:51:54.362Z,63.82
2022-11-18T02:52:58.658Z,63.89
2022-11-18T02:54:02.926Z,63.97
2022-11-18T02:55:08.194Z,64.21
2022-11-18T02:56:12.451Z,63.9
2022-11-18T02:57:16.746Z,64.35
2022-11-18T02:58:21.030Z,63.75
2022-11-18T02:59:26.329Z,63.72
2022-11-18T03:00:30.592Z,63.64
2022-11-18T03:01:35.160Z,63.66
2022-11-18T03:02:39.590Z,63.54
2022-11-18T03:03:43.853Z,63.29
2022-11-18T03:04:48.149Z,63.45
2022-11-18T03:05:52.396Z,63.71
2022-11-18T03:06:56.873Z,64.41
2022-11-18T03:08:01.209Z,63.76
2022-11-18T03:09:05.507Z,63.64
2022-11-18T03:10:09.758Z,63.72
2022-11-18T03:11:14.031Z,64.44
2022-11-18T03:12:18.297Z,63.74
2022-11-18T03:13:22.593Z,64.08
2022-11-18T03:14:27.114Z,63.68
2022-11-18T03:15:31.370Z,63.85
2022-11-18T03:16:35.712Z,63.93
2022-11-18T03:17:40.025Z,63.9
2022-11-18T03:18:44.324Z,64.7
2022-11-18T03:19:48.605Z,63.89
2022-11-18T03:20:52.888Z,63.91
2022-11-18T03:21:57.194Z,64.1
2022-11-18T03:23:01.727Z,64.57
2022-11-18T03:24:05.993Z,64.31
2022-11-18T03:25:10.280Z,64.57
2022-11-18T03:26:14.631Z,64.78
2022-11-18T03:27:18.938Z,64.29
2022-11-18T03:28:23.209Z,64.01
2022-11-18T03:29:27.464Z,64.02
2022-11-18T03:30:31.764Z,64.56
2022-11-18T03:31:36.033Z,64.73
2022-11-18T03:32:40.329Z,64.62
2022-11-18T03:33:44.621Z,64.22
2022-11-18T03:34:48.924Z,64.68
2022-11-18T03:35:53.210Z,64.63
2022-11-18T03:37:10.126Z,64.35
2022-11-18T03:38:14.657Z,64.4
2022-11-18T03:39:19.794Z,64.69
2022-11-18T03:40:24.170Z,64.8
2022-11-18T03:41:28.445Z,64.72
2022-11-18T03:42:32.753Z,64.81
2022-11-18T03:43:37.014Z,64.39
2022-11-18T03:44:41.298Z,64.53
2022-11-18T03:45:45.583Z,64.63
2022-11-18T03:46:49.836Z,64.55
2022-11-18T03:47:54.116Z,64.6
2022-11-18T03:48:58.386Z,64.68
2022-11-18T03:50:02.734Z,64.13
2022-11-18T03:51:07.028Z,64.42
2022-11-18T03:52:11.331Z,64.84
2022-11-18T03:53:15.671Z,64.86
2022-11-18T03:54:19.973Z,64.32
2022-11-18T03:55:24.302Z,64.34
2022-11-18T03:56:28.603Z,64.41
2022-11-18T03:57:32.887Z,64.62
2022-11-18T03:58:37.144Z,64.63
2022-11-18T03:59:41.417Z,64.42
2022-11-18T04:00:45.775Z,64.77
2022-11-18T04:01:50.302Z,64.16
2022-11-18T04:02:54.601Z,64.68
2022-11-18T04:03:58.958Z,64.63
2022-11-18T04:05:03.245Z,64.61
2022-11-18T04:06:07.508Z,64.62
2022-11-18T04:07:12.033Z,64.6
2022-11-18T04:08:16.362Z,64.72
2022-11-18T04:09:21.498Z,64.79
2022-11-18T04:10:25.757Z,64.8
2022-11-18T04:11:30.048Z,64.79
2022-11-18T04:12:34.322Z,64.94
2022-11-18T04:13:38.663Z,64.98
2022-11-18T04:14:43.115Z,64.37
2022-11-18T04:15:47.424Z,64.85
2022-11-18T04:16:51.688Z,65.02
2022-11-18T04:17:55.983Z,64.92
2022-11-18T04:19:19.090Z,64.97
2022-11-18T04:20:23.450Z,65.09
2022-11-18T04:21:27.766Z,64.94
2022-11-18T04:22:32.030Z,65.07
2022-11-18T04:23:36.287Z,64.71
2022-11-18T04:24:40.595Z,63.85
2022-11-18T04:25:44.861Z,64.55
2022-11-18T04:26:49.122Z,64.98
2022-11-18T04:27:53.400Z,64.6
2022-11-18T04:28:57.675Z,64.35
2022-11-18T04:30:01.952Z,64.76
2022-11-18T04:31:06.270Z,64.66
2022-11-18T04:32:10.576Z,64.89
2022-11-18T04:33:14.871Z,64.69
2022-11-18T04:34:19.149Z,64.94
2022-11-18T04:35:23.424Z,64.89
2022-11-18T04:36:27.750Z,64.73
2022-11-18T04:37:32.013Z,64.87
2022-11-18T04:38:36.562Z,64.49
2022-11-18T04:39:40.817Z,65.03
2022-11-18T04:40:45.145Z,64.89
2022-11-18T04:41:49.446Z,64.8
2022-11-18T04:42:53.737Z,64.94
2022-11-18T04:43:58.039Z,64.98
2022-11-18T04:45:02.312Z,64.8
2022-11-18T04:46:06.648Z,64.91
2022-11-18T04:47:10.917Z,64.39
2022-11-18T04:48:15.173Z,64.14
2022-11-18T04:49:20.496Z,64.76
2022-11-18T04:50:24.850Z,64.87
2022-11-18T04:51:29.164Z,64.36
2022-11-18T04:52:33.417Z,64.66
2022-11-18T04:53:37.720Z,64.72
2022-11-18T04:54:42.032Z,64.96
2022-11-18T04:55:46.311Z,64.84
2022-11-18T04:56:51.812Z,64.75
2022-11-18T04:57:56.372Z,64.71
2022-11-18T04:59:00.626Z,64.02
2022-11-18T05:00:04.910Z,64.37
2022-11-18T05:01:09.434Z,63.39
2022-11-18T05:02:13.737Z,62.96
2022-11-18T05:03:18.037Z,62.72
2022-11-18T05:04:22.325Z,63.53
2022-11-18T05:05:26.605Z,61.71
2022-11-18T05:06:30.878Z,61.51
2022-11-18T05:07:35.436Z,60.97
2022-11-18T05:08:39.724Z,61.02
2022-11-18T05:09:44.014Z,60.58
2022-11-18T05:10:48.280Z,60.22
2022-11-18T05:11:52.573Z,60.06
2022-11-18T05:12:56.871Z,60.01
2022-11-18T05:14:01.159Z,59.77
2022-11-18T05:15:05.425Z,59.4
2022-11-18T05:16:09.701Z,58.93
2022-11-18T05:17:13.961Z,58.52
2022-11-18T05:18:18.218Z,58.21
2022-11-18T05:19:22.844Z,57.89
2022-11-18T05:20:27.147Z,57.59
2022-11-18T05:21:31.427Z,57.56
2022-11-18T05:22:35.707Z,57.29
2022-11-18T05:23:39.961Z,57.22
2022-11-18T05:24:44.237Z,56.93
2022-11-18T05:25:48.544Z,56.83
2022-11-18T05:26:52.827Z,56.76
2022-11-18T05:27:57.100Z,56.63
2022-11-18T05:29:01.386Z,56.45
2022-11-18T05:30:05.679Z,56.37
2022-11-18T05:31:09.954Z,56.41
2022-11-18T05:32:14.222Z,56.22
2022-11-18T05:33:18.570Z,56.23
2022-11-18T05:34:22.832Z,56.21
2022-11-18T05:35:27.185Z,56.03
2022-11-18T05:36:31.439Z,56.02
2022-11-18T05:37:35.722Z,55.95
2022-11-18T05:38:39.992Z,55.91
2022-11-18T05:39:44.263Z,55.81
2022-11-18T05:40:48.566Z,55.94
2022-11-18T05:41:52.845Z,55.81
2022-11-18T05:42:57.121Z,55.86
2022-11-18T05:44:01.394Z,55.94
2022-11-18T05:45:05.956Z,55.98
2022-11-18T05:46:10.368Z,56.09
2022-11-18T05:47:14.630Z,56.09
2022-11-18T05:48:18.900Z,56.12
2022-11-18T05:49:23.208Z,56.17
2022-11-18T05:50:27.484Z,56.19
2022-11-18T05:51:31.760Z,56.24
2022-11-18T05:52:36.529Z,56.4
2022-11-18T05:53:40.772Z,56.38
2022-11-18T05:54:45.096Z,56.55
2022-11-18T05:55:49.384Z,56.54
2022-11-18T05:56:53.683Z,56.63
2022-11-18T05:57:58.003Z,56.65
2022-11-18T05:59:02.329Z,56.75
2022-11-18T06:00:06.676Z,56.84
2022-11-18T06:01:11.126Z,56.83
2022-11-18T06:02:15.424Z,56.82
2022-11-18T06:03:20.002Z,56.86
2022-11-18T06:04:24.329Z,57.09
2022-11-18T06:05:28.658Z,56.88
2022-11-18T06:06:32.985Z,56.95
2022-11-18T06:07:37.443Z,57.21
2022-11-18T06:08:42.027Z,57.11
2022-11-18T06:09:46.362Z,57.13
2022-11-18T06:10:50.636Z,57.25
2022-11-18T06:11:54.899Z,57.15
2022-11-18T06:12:59.242Z,57.29
2022-11-18T06:14:03.508Z,57.42
2022-11-18T06:15:07.812Z,57.54
2022-11-18T06:16:12.077Z,57.61
2022-11-18T06:17:18.692Z,57.59
2022-11-18T06:18:22.988Z,57.69
2022-11-18T06:19:27.238Z,57.52
2022-11-18T06:20:31.521Z,57.78
2022-11-18T06:21:35.822Z,57.69
2022-11-18T06:22:47.783Z,57.77
2022-11-18T06:23:52.047Z,57.73
2022-11-18T06:24:56.321Z,57.88
2022-11-18T06:26:00.586Z,57.77
2022-11-18T06:27:04.867Z,57.8
2022-11-18T06:28:09.202Z,58.01
2022-11-18T06:29:13.555Z,57.76
2022-11-18T06:30:18.010Z,58.06
2022-11-18T06:31:22.289Z,57.7
2022-11-18T06:32:26.555Z,57.27
2022-11-18T06:33:30.823Z,57.13
2022-11-18T06:34:43.117Z,56.92
2022-11-18T06:35:47.392Z,56.6
2022-11-18T06:36:51.730Z,56.27
2022-11-18T06:37:56.024Z,55.96
2022-11-18T06:39:00.360Z,55.81
2022-11-18T06:40:04.756Z,55.58
2022-11-18T06:41:09.061Z,55.44
2022-11-18T06:42:13.555Z,55.37
2022-11-18T06:43:17.850Z,55.26
2022-11-18T06:44:23.176Z,55.35
2022-11-18T06:45:27.938Z,55.34
2022-11-18T06:46:32.337Z,55.33
2022-11-18T06:47:36.660Z,55.34
2022-11-18T06:48:41.010Z,55.36
2022-11-18T06:49:45.336Z,55.46
2022-11-18T06:50:49.682Z,55.5
2022-11-18T06:51:54.033Z,55.46
2022-11-18T06:52:58.945Z,55.52
2022-11-18T06:54:11.886Z,55.52
2022-11-18T06:55:16.233Z,55.64
2022-11-18T06:56:20.534Z,55.75
2022-11-18T06:57:25.125Z,55.86
2022-11-18T06:58:29.428Z,55.88
2022-11-18T06:59:33.726Z,55.93
2022-11-18T07:00:38.293Z,56.09
2022-11-18T07:01:42.611Z,56.22
2022-11-18T07:02:46.941Z,56.11
2022-11-18T07:03:51.236Z,56.35
2022-11-18T07:04:55.551Z,56.36
2022-11-18T07:05:59.867Z,56.43
2022-11-18T07:07:04.377Z,56.56
2022-11-18T07:08:08.757Z,56.4
2022-11-18T07:09:13.165Z,56.66
2022-11-18T07:10:17.485Z,56.68
2022-11-18T07:11:21.826Z,56.73
2022-11-18T07:12:26.117Z,56.74
2022-11-18T07:13:30.427Z,56.84
2022-11-18T07:14:34.788Z,56.76
2022-11-18T07:15:39.118Z,56.99
2022-11-18T07:16:43.463Z,57.03
2022-11-18T07:17:47.771Z,57.08
2022-11-18T07:18:52.105Z,57.12
2022-11-18T07:19:56.397Z,57.12
2022-11-18T07:21:00.694Z,57.2
2022-11-18T07:22:05.053Z,57.16
2022-11-18T07:23:09.402Z,57.14
2022-11-18T07:24:13.724Z,57.23
2022-11-18T07:25:18.042Z,57.12
2022-11-18T07:26:22.347Z,57.05
2022-11-18T07:27:26.640Z,57.43
2022-11-18T07:28:30.990Z,57.46
2022-11-18T07:29:35.349Z,57.27
2022-11-18T07:30:39.658Z,57.44
2022-11-18T07:31:44.073Z,57.43
2022-11-18T07:32:48.384Z,57.32
2022-11-18T07:33:52.886Z,57.31
2022-11-18T07:34:57.197Z,57.44
2022-11-18T07:36:01.558Z,57.49
2022-11-18T07:37:05.846Z,57.5
2022-11-18T07:38:10.135Z,57.42
2022-11-18T07:39:14.712Z,57.4
2022-11-18T07:40:19.062Z,57.41
2022-11-18T07:41:23.401Z,57.29
2022-11-18T07:42:27.741Z,57.31
2022-11-18T07:43:32.032Z,57.33
2022-11-18T07:44:36.433Z,57.06
2022-11-18T07:45:40.743Z,56.91
2022-11-18T07:46:45.113Z,56.73
2022-11-18T07:47:49.407Z,56.47
2022-11-18T07:48:53.705Z,56.03
2022-11-18T07:49:58.016Z,55.67
2022-11-18T07:51:02.287Z,55.37
2022-11-18T07:52:06.633Z,55.08
2022-11-18T07:53:10.944Z,54.91
2022-11-18T07:54:17.543Z,54.72
2022-11-18T07:55:21.831Z,54.53
2022-11-18T07:56:26.248Z,54.4
2022-11-18T07:57:30.560Z,54.48
2022-11-18T07:58:34.919Z,54.35
2022-11-18T07:59:39.371Z,54.42
2022-11-18T08:00:43.677Z,54.35
2022-11-18T08:01:48.323Z,54.44
2022-11-18T08:02:52.741Z,54.63
2022-11-18T08:03:57.028Z,54.51
2022-11-18T08:05:01.664Z,54.51
2022-11-18T08:06:06.187Z,54.67
2022-11-18T08:07:10.955Z,54.67
2022-11-18T08:08:15.307Z,54.73
2022-11-18T08:09:20.397Z,54.74
2022-11-18T08:10:24.846Z,54.85
2022-11-18T08:11:29.151Z,54.88
2022-11-18T08:12:33.440Z,54.83
2022-11-18T08:13:37.726Z,55
2022-11-18T08:14:42.053Z,55.16
2022-11-18T08:15:46.565Z,55.17
2022-11-18T08:16:50.856Z,55.25
2022-11-18T08:17:55.153Z,55.18
2022-11-18T08:18:59.493Z,55.38
2022-11-18T08:20:03.783Z,55.36
2022-11-18T08:21:08.094Z,55.42
2022-11-18T08:22:12.431Z,55.55
2022-11-18T08:23:16.713Z,55.26
2022-11-18T08:24:21.045Z,55.31
2022-11-18T08:25:25.360Z,55.35
2022-11-18T08:26:29.658Z,55.61
2022-11-18T08:27:33.978Z,55.74
2022-11-18T08:28:38.598Z,55.85
2022-11-18T08:29:42.937Z,55.99
2022-11-18T08:30:47.329Z,55.95
2022-11-18T08:31:52.698Z,56.12
2022-11-18T08:32:56.987Z,55.84
2022-11-18T08:34:01.319Z,55.93
2022-11-18T08:35:12.692Z,56.15
2022-11-18T08:36:16.998Z,56.3
2022-11-18T08:37:21.345Z,56.25
2022-11-18T08:38:25.640Z,56.39
2022-11-18T08:39:29.981Z,56.36
2022-11-18T08:40:34.275Z,56.5
2022-11-18T08:41:38.567Z,56.52
2022-11-18T08:42:42.980Z,56.4
2022-11-18T08:43:47.278Z,56.4
2022-11-18T08:44:51.596Z,56.57
2022-11-18T08:45:55.886Z,56.5
2022-11-18T08:47:00.204Z,56.49
2022-11-18T08:48:04.543Z,56.56
2022-11-18T08:49:08.856Z,56.67
2022-11-18T08:50:13.245Z,56.53
2022-11-18T08:51:17.539Z,56.46
2022-11-18T08:52:21.850Z,56.58
2022-11-18T08:53:26.170Z,56.18
2022-11-18T08:54:30.497Z,56.22
2022-11-18T08:55:34.860Z,56.33
2022-11-18T08:56:39.177Z,56.36
2022-11-18T08:57:43.534Z,56.37
2022-11-18T08:58:47.868Z,56.32
2022-11-18T08:59:52.173Z,56.17
2022-11-18T09:00:56.865Z,56.16
2022-11-18T09:02:01.415Z,55.96
2022-11-18T09:03:05.804Z,55.91
2022-11-18T09:04:10.114Z,55.7
2022-11-18T09:05:14.419Z,55.62
2022-11-18T09:06:19.139Z,55.16
2022-11-18T09:07:23.724Z,54.61
2022-11-18T09:08:28.147Z,54.57
2022-11-18T09:09:32.681Z,54.22
2022-11-18T09:10:36.985Z,53.98
2022-11-18T09:11:41.310Z,53.92
2022-11-18T09:12:48.745Z,53.67
2022-11-18T09:15:25.384Z,53.47
2022-11-18T09:16:30.550Z,53.57
2022-11-18T09:17:34.918Z,53.4
2022-11-18T09:18:39.263Z,53.38
2022-11-18T09:19:50.763Z,53.48
2022-11-18T09:20:55.077Z,53.64
2022-11-18T09:21:59.430Z,53.58
2022-11-18T09:23:03.787Z,53.67
2022-11-18T09:24:08.090Z,53.77
2022-11-18T09:25:12.408Z,53.69
2022-11-18T09:26:16.687Z,53.85
2022-11-18T09:27:21.026Z,53.88
2022-11-18T09:28:25.386Z,53.99
2022-11-18T09:29:30.071Z,54.04
2022-11-18T09:30:34.390Z,54.09
2022-11-18T09:31:38.693Z,54.11
2022-11-18T09:32:43.001Z,54.29
2022-11-18T09:33:47.338Z,54.42
2022-11-18T09:34:51.633Z,54.37
2022-11-18T09:35:56.217Z,54.34
2022-11-18T09:37:00.530Z,54.55
2022-11-18T09:38:04.827Z,54.52
2022-11-18T09:39:09.212Z,54.47
2022-11-18T09:40:13.515Z,54.85
2022-11-18T09:41:17.791Z,55.03
2022-11-18T09:42:22.106Z,54.81
2022-11-18T09:43:26.439Z,55.13
2022-11-18T09:44:30.871Z,54.85
2022-11-18T09:45:35.161Z,55.09
2022-11-18T09:46:39.455Z,55.3
2022-11-18T09:47:43.764Z,55.15
2022-11-18T09:48:48.057Z,55.16
2022-11-18T09:49:52.360Z,55.4
2022-11-18T09:50:56.682Z,55.18
2022-11-18T09:52:01.022Z,55.17
2022-11-18T09:53:05.356Z,55.39
2022-11-18T09:54:09.712Z,55.47
2022-11-18T09:55:14.028Z,55.55
2022-11-18T09:56:18.505Z,55.56
2022-11-18T09:57:22.825Z,55.47
2022-11-18T09:58:27.168Z,55.42
2022-11-18T09:59:31.483Z,55.65
2022-11-18T10:00:36.286Z,55.69
2022-11-18T10:01:40.812Z,55.72
2022-11-18T10:02:45.171Z,55.82
2022-11-18T10:03:49.469Z,55.73
2022-11-18T10:04:55.463Z,55.76
2022-11-18T10:05:59.790Z,55.64
2022-11-18T10:07:04.307Z,55.6
2022-11-18T10:08:08.645Z,55.55
2022-11-18T10:09:12.925Z,55.48
2022-11-18T10:10:17.195Z,55.44
2022-11-18T10:11:21.451Z,55.57
2022-11-18T10:12:25.711Z,55.12
2022-11-18T10:13:29.976Z,54.94
2022-11-18T10:14:34.333Z,54.88
2022-11-18T10:15:38.588Z,55.07
2022-11-18T10:16:42.901Z,55.08
2022-11-18T10:17:47.178Z,55.13
2022-11-18T10:19:06.773Z,54.85
2022-11-18T10:20:11.102Z,55
2022-11-18T10:21:15.428Z,54.72
2022-11-18T10:22:26.085Z,54.76
2022-11-18T10:23:30.402Z,54.26
2022-11-18T10:24:34.704Z,53.68
2022-11-18T10:25:38.973Z,53.35
2022-11-18T10:26:43.287Z,53.18
2022-11-18T10:27:47.551Z,52.92
2022-11-18T10:28:51.824Z,52.76
2022-11-18T10:29:56.111Z,52.5
2022-11-18T10:31:00.359Z,52.27
2022-11-18T10:32:06.403Z,52.17
2022-11-18T10:33:10.705Z,52.16
2022-11-18T10:34:15.302Z,52.13
2022-11-18T10:35:19.673Z,52.31
2022-11-18T10:36:23.943Z,52.29
2022-11-18T10:38:08.959Z,52.4
2022-11-18T10:39:13.467Z,52.41
2022-11-18T10:40:17.785Z,52.5
2022-11-18T10:41:22.146Z,52.84
2022-11-18T10:42:26.432Z,52.7
2022-11-18T10:43:30.673Z,52.86
2022-11-18T10:44:34.951Z,52.89
2022-11-18T10:45:39.212Z,53.07
2022-11-18T10:46:43.505Z,53.08
2022-11-18T10:47:48.025Z,53.31
2022-11-18T10:48:52.406Z,53.34
2022-11-18T10:49:56.779Z,53.47
2022-11-18T10:51:01.138Z,53.44
2022-11-18T10:52:05.394Z,53.74
2022-11-18T10:53:09.671Z,53.74
2022-11-18T10:54:13.926Z,53.9
2022-11-18T10:55:18.199Z,54.04
2022-11-18T10:56:22.537Z,54.07
2022-11-18T10:57:26.816Z,54.15
2022-11-18T10:58:31.132Z,54
2022-11-18T10:59:35.398Z,53.86
2022-11-18T11:00:39.675Z,53.79
2022-11-18T11:01:44.192Z,53.65
2022-11-18T11:02:48.502Z,53.5
2022-11-18T11:03:53.751Z,53.39
2022-11-18T11:04:58.106Z,53.44
2022-11-18T11:06:02.373Z,53.53
2022-11-18T11:07:06.811Z,53.42
2022-11-18T11:08:38.879Z,53.8
2022-11-18T11:09:43.160Z,53.67
2022-11-18T11:10:54.362Z,54.18
2022-11-18T11:11:58.637Z,54.12
2022-11-18T11:13:02.919Z,54.33
2022-11-18T11:14:07.239Z,54.55
2022-11-18T11:15:11.522Z,54.27
2022-11-18T11:16:15.766Z,54.56
2022-11-18T11:17:20.432Z,54.68
2022-11-18T11:18:24.750Z,54.54
2022-11-18T11:19:29.017Z,54.49
2022-11-18T11:20:33.537Z,54.39
2022-11-18T11:21:37.770Z,54.32
2022-11-18T11:22:42.007Z,54.25
2022-11-18T11:23:46.258Z,54.41
2022-11-18T11:24:50.529Z,54.58
2022-11-18T11:28:28.952Z,54.6
2022-11-18T11:29:33.193Z,54.54
2022-11-18T11:30:40.776Z,54.56
2022-11-18T11:31:48.837Z,54.48
2022-11-18T11:32:53.086Z,54.82
2022-11-18T11:33:57.329Z,54.74
2022-11-18T11:35:01.597Z,55.04
2022-11-18T11:36:05.827Z,54.81
2022-11-18T11:37:10.042Z,54.83
2022-11-18T11:38:14.308Z,54.89
2022-11-18T11:39:19.707Z,54.88
2022-11-18T11:40:24.124Z,54.65
2022-11-18T11:41:28.343Z,53.98
2022-11-18T11:42:32.579Z,52.55
2022-11-18T11:43:36.790Z,51.55
2022-11-18T11:44:41.022Z,50.96
2022-11-18T11:45:45.295Z,50.65
2022-11-18T11:46:49.562Z,49.74
2022-11-18T11:47:53.814Z,49.4
2022-11-18T11:48:58.059Z,49.1
2022-11-18T11:50:02.283Z,48.58
2022-11-18T11:51:07.421Z,48.21
2022-11-18T11:52:11.673Z,47.25
2022-11-18T11:53:15.907Z,47.19
2022-11-18T11:54:20.162Z,47.1
2022-11-18T11:55:24.381Z,46.74
2022-11-18T11:56:28.666Z,46.15
2022-11-18T11:57:32.930Z,46.37
2022-11-18T11:58:37.253Z,45.92
2022-11-18T11:59:41.493Z,45.71
2022-11-18T12:00:45.896Z,45.56
2022-11-18T12:01:50.109Z,45.31
2022-11-18T12:02:54.529Z,44.75
2022-11-18T12:03:58.838Z,45.28
2022-11-18T12:05:03.080Z,44.93
2022-11-18T12:06:07.335Z,45.04
2022-11-18T12:07:11.826Z,44.65
2022-11-18T12:08:16.261Z,44.91
2022-11-18T12:09:21.189Z,44.4
2022-11-18T12:10:25.434Z,44.63
2022-11-18T12:11:29.687Z,43.97
2022-11-18T12:12:33.928Z,44.08
2022-11-18T12:13:38.172Z,44.47
2022-11-18T12:14:42.404Z,43.77
2022-11-18T12:15:46.652Z,43.85
2022-11-18T12:16:50.884Z,43.53
2022-11-18T12:17:55.127Z,42.96
2022-11-18T12:18:59.513Z,43.54
2022-11-18T12:20:03.728Z,43.27
2022-11-18T12:21:07.960Z,42.9
2022-11-18T12:22:12.237Z,43.23
2022-11-18T12:23:16.517Z,42.67
2022-11-18T12:24:20.742Z,42.56
2022-11-18T12:25:25.181Z,43.08
2022-11-18T12:26:29.413Z,42.47
2022-11-18T12:27:33.810Z,42.61
2022-11-18T12:28:38.043Z,42.93
2022-11-18T12:29:42.325Z,42.67
2022-11-18T12:30:46.555Z,42.02
2022-11-18T12:31:53.136Z,42.48
2022-11-18T12:32:57.421Z,42.62
2022-11-18T12:34:01.792Z,41.78
2022-11-18T12:35:06.091Z,42.37
2022-11-18T12:36:10.493Z,42.06
2022-11-18T12:37:14.722Z,42.38
2022-11-18T12:38:18.957Z,41.45
2022-11-18T12:39:23.180Z,42.31
2022-11-18T12:40:27.418Z,41.71
2022-11-18T12:41:31.651Z,41.77
2022-11-18T12:42:35.900Z,41.9
2022-11-18T12:43:40.109Z,41.46
2022-11-18T12:44:44.357Z,41.57
2022-11-18T12:45:48.599Z,41.62
2022-11-18T12:46:52.816Z,41.5
2022-11-18T12:47:57.051Z,41.12
2022-11-18T12:49:01.279Z,41.23
2022-11-18T12:50:05.521Z,41.04
2022-11-18T12:51:09.739Z,41.16
2022-11-18T12:52:13.951Z,41.07
2022-11-18T12:53:18.191Z,41.73
2022-11-18T12:54:22.461Z,40.99
2022-11-18T12:55:26.701Z,41.2
2022-11-18T12:56:30.944Z,40.89
2022-11-18T12:57:35.161Z,41.02
2022-11-18T12:58:39.380Z,40.94
2022-11-18T12:59:43.586Z,40.6
2022-11-18T13:00:48.062Z,40.89
2022-11-18T13:01:52.383Z,41.17
2022-11-18T13:02:56.731Z,41.74
2022-11-18T13:04:01.960Z,43.04
2022-11-18T13:05:06.191Z,43.16
2022-11-18T13:06:10.404Z,43.4
2022-11-18T13:07:14.819Z,43.63
2022-11-18T13:08:19.072Z,43.83
2022-11-18T13:09:23.583Z,44.08
2022-11-18T13:10:27.802Z,44.57
2022-11-18T13:11:32.175Z,44.65
2022-11-18T13:12:37.450Z,44.3
2022-11-18T13:13:41.704Z,45.1
2022-11-18T13:14:46.015Z,44.38
2022-11-18T13:15:50.264Z,44.42
2022-11-18T13:16:54.542Z,44.69
2022-11-18T13:17:58.828Z,44.37
2022-11-18T13:19:03.233Z,44.66
2022-11-18T13:20:07.506Z,45.1
2022-11-18T13:21:11.740Z,45.13
2022-11-18T13:22:15.995Z,44.6
2022-11-18T13:23:20.214Z,44.73
2022-11-18T13:24:24.454Z,44.73
2022-11-18T13:25:28.784Z,44.39
2022-11-18T13:26:33.025Z,44.04
2022-11-18T13:27:37.243Z,44.04
2022-11-18T13:28:41.480Z,43.85
2022-11-18T13:29:54.000Z,43.97
2022-11-18T13:30:58.468Z,44.18
2022-11-18T13:32:02.756Z,43.89
2022-11-18T13:33:06.955Z,44.35
2022-11-18T13:34:11.254Z,44.3
2022-11-18T13:35:16.489Z,44.37
2022-11-18T13:36:20.733Z,44.62
2022-11-18T13:37:25.002Z,44.68
2022-11-18T13:38:30.763Z,44.93
2022-11-18T13:39:34.994Z,45.29
2022-11-18T13:40:39.220Z,45.24
2022-11-18T13:41:43.557Z,45.55
2022-11-18T13:42:47.792Z,45.63
2022-11-18T13:43:55.871Z,45.71
2022-11-18T13:45:00.113Z,45.76
2022-11-18T13:46:04.417Z,46
2022-11-18T13:47:08.646Z,45.8
2022-11-18T13:48:12.869Z,46.03
2022-11-18T13:49:18.478Z,46.06
2022-11-18T13:50:23.079Z,46.15
2022-11-18T13:51:27.407Z,46.24
2022-11-18T13:52:31.814Z,46.39
2022-11-18T13:53:36.039Z,46.65
2022-11-18T13:54:40.285Z,46.69
2022-11-18T13:55:44.502Z,46.75
2022-11-18T13:56:48.751Z,46.91
2022-11-18T13:57:52.969Z,47.05
2022-11-18T13:59:19.565Z,47